Time;durP1;ratioP1;P1;durP2;ratioP2;P2;SDS_P1;SDS_P2;PMS_P1;PMS_P2;Temp;Humidity;BMP_temperature;BMP_pressure;BME280_temperature;BME280_humidity;BME280_pressure;Samples;Min_cycle;Max_cycle;Signal;HPM_P1;HPM_P2
2021/07/05 00:01:52;;;;;;;3.50;2.08;;;17.60;96.70;;;;;;4975263;28;20359;-78
2021/07/05 00:04:18;;;;;;;4.70;2.10;;;17.50;96.70;;;;;;4976315;28;20054;-78
2021/07/05 00:06:43;;;;;;;3.28;1.95;;;17.50;96.70;;;;;;4975606;28;20073;-77
2021/07/05 00:09:09;;;;;;;3.40;1.77;;;17.50;96.60;;;;;;4993560;28;20224;-78
2021/07/05 00:11:35;;;;;;;3.15;1.75;;;17.50;96.70;;;;;;4976124;28;20027;-78
2021/07/05 00:14:01;;;;;;;3.28;2.00;;;17.50;96.70;;;;;;4975275;28;20053;-77
2021/07/05 00:16:26;;;;;;;4.38;1.75;;;17.50;96.60;;;;;;4975829;28;20481;-77
2021/07/05 00:18:52;;;;;;;3.47;2.05;;;17.50;96.60;;;;;;4975317;28;20468;-77
2021/07/05 00:21:18;;;;;;;4.03;2.05;;;17.50;96.60;;;;;;4993092;28;20485;-77
2021/07/05 00:23:43;;;;;;;3.45;2.03;;;17.60;96.50;;;;;;4992853;28;20101;-79
2021/07/05 00:26:09;;;;;;;3.40;1.88;;;17.60;96.50;;;;;;4975852;28;20034;-78
2021/07/05 00:28:36;;;;;;;3.58;2.03;;;17.70;96.40;;;;;;4975627;28;20076;-76
2021/07/05 00:31:02;;;;;;;3.83;1.52;;;17.70;96.30;;;;;;4992555;28;20037;-76
2021/07/05 00:33:28;;;;;;;3.55;1.65;;;17.70;96.30;;;;;;4975906;28;20470;-76
2021/07/05 00:35:54;;;;;;;3.30;1.80;;;17.70;96.20;;;;;;4974316;28;20050;-76
2021/07/05 00:38:19;;;;;;;2.67;1.48;;;17.80;96.20;;;;;;4975207;28;20023;-77
2021/07/05 00:40:45;;;;;;;3.47;1.77;;;17.80;96.20;;;;;;4992466;28;20110;-77
2021/07/05 00:43:11;;;;;;;2.97;1.80;;;17.80;96.20;;;;;;4975466;28;20109;-77
2021/07/05 00:45:37;;;;;;;3.10;1.67;;;17.80;96.20;;;;;;4975568;28;20022;-77
2021/07/05 00:48:04;;;;;;;4.13;1.63;;;17.80;96.10;;;;;;4974821;28;20023;-78
2021/07/05 00:50:30;;;;;;;2.47;1.35;;;17.80;96.10;;;;;;4975481;28;20117;-79
2021/07/05 00:52:58;;;;;;;3.05;1.73;;;17.80;96.10;;;;;;4974906;28;20038;-78
2021/07/05 00:55:25;;;;;;;2.53;1.38;;;17.90;96.10;;;;;;4992883;28;20030;-78
2021/07/05 00:57:51;;;;;;;2.28;1.27;;;17.80;96.00;;;;;;4974732;28;20438;-78
2021/07/05 01:00:19;;;;;;;2.25;1.33;;;17.90;96.00;;;;;;4975237;28;20137;-78
2021/07/05 01:02:46;;;;;;;2.03;1.30;;;17.80;96.00;;;;;;4992391;28;20027;-82
2021/07/05 01:05:13;;;;;;;2.13;1.23;;;17.80;96.00;;;;;;4992707;28;20038;-78
2021/07/05 01:07:39;;;;;;;2.42;1.40;;;17.80;95.90;;;;;;4974916;28;20023;-78
2021/07/05 01:10:06;;;;;;;2.10;1.10;;;17.80;95.90;;;;;;4974605;28;20081;-77
2021/07/05 01:12:32;;;;;;;2.33;1.20;;;17.80;96.00;;;;;;4992650;28;20023;-78
2021/07/05 01:14:58;;;;;;;1.77;1.10;;;17.80;96.00;;;;;;4974590;28;20050;-78
2021/07/05 01:17:24;;;;;;;1.92;1.20;;;17.70;96.00;;;;;;4974686;28;20101;-78
2021/07/05 01:19:50;;;;;;;3.22;1.40;;;17.80;96.00;;;;;;4992122;28;20113;-78
2021/07/05 01:22:17;;;;;;;1.25;0.93;;;17.80;96.00;;;;;;4975178;28;20022;-77
2021/07/05 01:24:45;;;;;;;1.65;1.02;;;17.80;96.00;;;;;;4975215;28;20033;-77
2021/07/05 01:27:11;;;;;;;1.50;0.85;;;17.80;95.90;;;;;;4974494;28;20093;-78
2021/07/05 01:29:40;;;;;;;2.53;1.30;;;17.90;95.90;;;;;;4974952;28;20364;-78
2021/07/05 01:32:07;;;;;;;1.85;1.00;;;17.90;95.80;;;;;;4991679;28;20065;-77
2021/07/05 01:34:34;;;;;;;1.38;0.93;;;17.90;95.80;;;;;;4975039;28;20072;-76
2021/07/05 01:37:00;;;;;;;1.25;0.80;;;17.90;95.80;;;;;;4991793;28;20031;-76
2021/07/05 01:39:26;;;;;;;3.30;1.23;;;18.00;95.80;;;;;;4974558;28;20026;-76
2021/07/05 01:41:52;;;;;;;1.92;1.35;;;18.00;95.80;;;;;;4974280;28;20018;-76
2021/07/05 01:44:17;;;;;;;2.15;1.10;;;17.90;95.80;;;;;;4974832;28;20085;-76
2021/07/05 01:46:43;;;;;;;2.17;1.10;;;17.90;95.80;;;;;;4992338;28;20030;-76
2021/07/05 01:49:10;;;;;;;2.63;1.08;;;17.90;95.90;;;;;;4977583;28;20168;-76
2021/07/05 01:51:36;;;;;;;1.38;0.90;;;17.80;95.90;;;;;;4978646;28;20073;-76
2021/07/05 01:54:02;;;;;;;1.23;0.90;;;17.80;96.00;;;;;;4978024;28;20058;-77
2021/07/05 01:56:28;;;;;;;1.70;0.90;;;17.70;96.00;;;;;;4978546;28;20470;-76
2021/07/05 01:58:54;;;;;;;1.65;1.02;;;17.70;96.10;;;;;;4977856;28;20038;-77
2021/07/05 02:01:20;;;;;;;2.08;1.20;;;17.70;96.10;;;;;;4978157;28;20027;-76
2021/07/05 02:03:45;;;;;;;2.88;1.05;;;17.70;96.10;;;;;;4978478;28;20022;-76
2021/07/05 02:06:11;;;;;;;1.65;1.00;;;17.70;96.10;;;;;;4977845;28;20129;-77
2021/07/05 02:08:38;;;;;;;1.45;0.85;;;17.70;96.00;;;;;;4978343;28;20155;-76
2021/07/05 02:11:04;;;;;;;1.70;1.08;;;17.80;96.00;;;;;;4977700;28;20030;-77
2021/07/05 02:13:34;;;;;;;1.38;0.95;;;17.80;95.90;;;;;;4978296;28;20378;-76
2021/07/05 02:16:01;;;;;;;1.40;0.80;;;17.80;95.80;;;;;;4977505;28;20046;-76
2021/07/05 02:18:29;;;;;;;1.60;1.10;;;17.70;95.80;;;;;;4978334;28;20030;-77
2021/07/05 02:20:56;;;;;;;1.45;0.93;;;17.70;95.80;;;;;;4977597;28;20348;-77
2021/07/05 02:23:22;;;;;;;1.73;0.85;;;17.70;95.80;;;;;;4978230;28;20027;-78
2021/07/05 02:25:50;;;;;;;1.80;0.98;;;17.60;95.70;;;;;;4978158;28;20359;-77
2021/07/05 02:28:19;;;;;;;2.08;0.70;;;17.60;95.80;;;;;;4977953;28;20022;-78
2021/07/05 02:30:47;;;;;;;1.42;1.00;;;17.60;95.90;;;;;;4978096;28;20430;-78
2021/07/05 02:33:20;;;;;;;1.10;0.70;;;17.50;95.90;;;;;;4977318;28;20022;-77
2021/07/05 02:35:46;;;;;;;1.55;1.00;;;17.50;95.80;;;;;;4995238;28;20142;-77
2021/07/05 02:38:12;;;;;;;1.42;0.85;;;17.50;95.80;;;;;;4977297;28;20974;-77
2021/07/05 02:40:42;;;;;;;1.23;0.75;;;17.60;95.70;;;;;;4977929;28;20118;-77
2021/07/05 02:43:07;;;;;;;1.35;0.85;;;17.60;95.70;;;;;;4976812;28;20109;-78
2021/07/05 02:45:35;;;;;;;2.20;0.88;;;17.60;95.60;;;;;;4977766;28;20113;-76
2021/07/05 02:48:04;;;;;;;1.10;0.90;;;17.60;95.60;;;;;;4994814;28;20033;-76
2021/07/05 02:50:31;;;;;;;1.08;0.68;;;17.60;95.60;;;;;;4977453;28;20129;-76
2021/07/05 02:52:57;;;;;;;1.52;0.75;;;17.60;95.50;;;;;;4994171;28;20030;-76
2021/07/05 02:55:23;;;;;;;1.38;1.00;;;17.60;95.50;;;;;;4995173;28;20107;-76
2021/07/05 02:57:49;;;;;;;1.35;0.80;;;17.60;95.60;;;;;;4977469;28;20015;-76
2021/07/05 03:00:22;;;;;;;9.77;1.30;;;17.60;95.70;;;;;;4976039;28;20026;-78
2021/07/05 03:02:49;;;;;;;1.63;0.88;;;17.60;95.70;;;;;;4995000;28;20030;-76
2021/07/05 03:05:17;;;;;;;1.90;1.20;;;17.60;95.80;;;;;;4994464;28;20089;-76
2021/07/05 03:07:44;;;;;;;2.72;1.02;;;17.60;95.80;;;;;;4977347;28;20026;-76
2021/07/05 03:10:15;;;;;;;1.95;1.00;;;17.50;95.80;;;;;;4976662;28;20034;-76
2021/07/05 03:12:42;;;;;;;1.65;1.17;;;17.50;95.80;;;;;;4994730;28;20034;-76
2021/07/05 03:15:11;;;;;;;2.38;1.33;;;17.50;95.80;;;;;;4976617;28;20410;-76
2021/07/05 03:17:37;;;;;;;2.85;1.40;;;17.50;95.80;;;;;;4977189;28;20038;-77
2021/07/05 03:20:08;;;;;;;2.05;1.35;;;17.50;95.80;;;;;;4976477;28;20030;-77
2021/07/05 03:22:35;;;;;;;2.40;1.40;;;17.50;95.80;;;;;;4994694;28;20019;-77
2021/07/05 03:25:03;;;;;;;1.98;1.17;;;17.50;95.80;;;;;;4976232;28;20029;-77
2021/07/05 03:27:29;;;;;;;2.17;1.38;;;17.50;95.80;;;;;;4977002;28;20023;-76
2021/07/05 03:29:56;;;;;;;1.88;1.17;;;17.50;95.80;;;;;;4994054;28;20031;-81
2021/07/05 03:32:21;;;;;;;3.00;1.40;;;17.50;95.80;;;;;;4976886;28;20116;-76
2021/07/05 03:34:47;;;;;;;2.28;1.30;;;17.50;95.70;;;;;;4976774;28;20490;-77
2021/07/05 03:37:13;;;;;;;1.95;1.40;;;17.50;95.70;;;;;;4976187;28;20031;-77
2021/07/05 03:39:38;;;;;;;2.17;1.25;;;17.50;95.70;;;;;;4976802;28;20073;-76
2021/07/05 03:42:04;;;;;;;2.35;1.55;;;17.50;95.70;;;;;;4975891;28;20382;-77
2021/07/05 03:44:30;;;;;;;2.40;1.50;;;17.60;95.70;;;;;;4976414;28;20022;-76
2021/07/05 03:46:56;;;;;;;2.05;1.15;;;17.60;95.70;;;;;;4993888;28;20029;-80
2021/07/05 03:49:22;;;;;;;2.78;1.40;;;17.60;95.70;;;;;;4993677;28;20512;-76
2021/07/05 03:51:49;;;;;;;1.33;1.08;;;17.60;95.60;;;;;;4976222;28;20026;-76
2021/07/05 03:54:15;;;;;;;2.33;1.40;;;17.60;95.60;;;;;;4975921;28;20019;-76
2021/07/05 03:56:41;;;;;;;1.35;0.98;;;17.60;95.70;;;;;;4976482;28;20018;-76
2021/07/05 03:59:06;;;;;;;1.45;1.17;;;17.60;95.70;;;;;;4975709;28;20023;-77
2021/07/05 04:01:32;;;;;;;1.73;1.35;;;17.60;95.70;;;;;;4976237;28;20018;-76
2021/07/05 04:03:59;;;;;;;2.90;1.85;;;17.50;95.70;;;;;;4975799;28;20458;-80
2021/07/05 04:06:25;;;;;;;3.08;1.70;;;17.50;95.70;;;;;;4976338;28;20019;-77
2021/07/05 04:08:51;;;;;;;3.22;1.73;;;17.50;95.70;;;;;;4976098;28;20037;-77
2021/07/05 04:11:17;;;;;;;2.22;1.25;;;17.30;95.80;;;;;;4975572;28;20035;-78
2021/07/05 04:13:43;;;;;;;2.65;1.38;;;17.10;96.00;;;;;;4976169;28;20030;-78
2021/07/05 04:16:08;;;;;;;1.88;1.17;;;17.00;96.20;;;;;;4992430;28;20061;-78
2021/07/05 04:18:34;;;;;;;2.22;1.10;;;17.00;96.20;;;;;;4976026;28;20038;-78
2021/07/05 04:21:00;;;;;;;1.45;1.00;;;16.90;96.30;;;;;;4992688;28;20474;-79
2021/07/05 04:23:25;;;;;;;2.15;0.93;;;16.90;96.30;;;;;;4975596;28;20125;-79
2021/07/05 04:25:53;;;;;;;1.85;1.15;;;16.80;96.40;;;;;;4975779;28;20026;-78
2021/07/05 04:28:19;;;;;;;0.93;0.82;;;16.60;96.40;;;;;;4975070;28;20027;-79
2021/07/05 04:30:44;;;;;;;1.42;0.93;;;16.50;96.60;;;;;;4993281;28;20026;-78
2021/07/05 04:33:10;;;;;;;1.92;0.80;;;16.40;96.70;;;;;;4992854;28;20352;-78
2021/07/05 04:35:36;;;;;;;1.15;0.60;;;16.30;96.70;;;;;;4975884;28;20370;-78
2021/07/05 04:38:02;;;;;;;0.50;0.50;;;16.20;96.80;;;;;;4975177;28;20026;-80
2021/07/05 04:40:32;;;;;;;0.73;0.70;;;16.20;96.80;;;;;;4975278;28;20022;-79
2021/07/05 04:42:59;;;;;;;0.47;0.43;;;16.20;96.90;;;;;;4993126;28;20022;-78
2021/07/05 04:45:28;;;;;;;2.65;0.57;;;16.20;96.80;;;;;;4974968;28;20077;-79
2021/07/05 04:47:56;;;;;;;0.80;0.60;;;16.10;96.80;;;;;;4975453;28;20023;-79
2021/07/05 04:50:22;;;;;;;1.08;0.50;;;16.10;96.80;;;;;;4974751;28;20027;-78
2021/07/05 04:52:48;;;;;;;0.30;0.30;;;16.00;96.90;;;;;;4975481;28;20436;-79
2021/07/05 04:55:16;;;;;;;3.17;0.70;;;15.90;96.90;;;;;;4974821;28;20110;-79
2021/07/05 04:57:43;;;;;;;0.57;0.52;;;15.80;97.00;;;;;;4975428;28;20065;-79
2021/07/05 05:00:18;;;;;;;0.50;0.50;;;15.70;97.10;;;;;;4974838;28;20034;-79
2021/07/05 05:02:44;;;;;;;0.80;0.55;;;15.70;97.20;;;;;;4993069;28;20030;-79
2021/07/05 05:05:10;;;;;;;0.40;0.40;;;15.70;97.30;;;;;;4974645;28;20455;-80
2021/07/05 05:07:55;;;;;;;0.70;0.50;;;15.70;97.20;;;;;;4974881;28;20022;-79
2021/07/05 05:10:21;;;;;;;0.80;0.50;;;15.70;97.30;;;;;;4974528;28;20061;-80
2021/07/05 05:12:48;;;;;;;1.08;0.63;;;15.70;97.30;;;;;;4975274;28;20027;-79
2021/07/05 05:15:17;;;;;;;1.05;0.57;;;15.80;97.30;;;;;;4974352;28;20023;-80
2021/07/05 05:17:43;;;;;;;0.43;0.38;;;15.80;97.30;;;;;;4975279;28;20153;-79
2021/07/05 05:20:10;;;;;;;0.57;0.52;;;15.80;97.30;;;;;;4974541;28;20065;-80
2021/07/05 05:22:37;;;;;;;1.10;0.70;;;15.90;97.30;;;;;;4974756;28;20022;-79
2021/07/05 05:25:05;;;;;;;0.70;0.40;;;15.80;97.30;;;;;;4974794;28;20025;-83
2021/07/05 05:27:31;;;;;;;0.60;0.40;;;15.80;97.40;;;;;;4974894;28;20398;-79
2021/07/05 05:29:57;;;;;;;0.80;0.52;;;15.80;97.30;;;;;;4992471;28;20089;-79
2021/07/05 05:32:22;;;;;;;1.15;0.50;;;15.80;97.30;;;;;;4992208;28;20355;-79
2021/07/05 05:34:48;;;;;;;0.60;0.60;;;15.90;97.30;;;;;;4992844;28;20034;-79
2021/07/05 05:37:14;;;;;;;2.47;0.75;;;15.90;97.30;;;;;;4974280;28;20029;-80
2021/07/05 05:39:39;;;;;;;0.68;0.40;;;15.90;97.30;;;;;;4974718;28;20121;-79
2021/07/05 05:42:05;;;;;;;1.02;0.80;;;16.00;97.30;;;;;;4974160;28;20025;-81
2021/07/05 05:44:31;;;;;;;0.65;0.52;;;16.00;97.30;;;;;;4974959;28;20355;-79
2021/07/05 05:46:57;;;;;;;0.85;0.60;;;16.10;97.30;;;;;;4974911;28;20022;-79
2021/07/05 05:49:23;;;;;;;1.98;0.80;;;16.10;97.30;;;;;;4991909;28;20030;-79
2021/07/05 05:51:49;;;;;;;0.93;0.82;;;16.10;97.20;;;;;;4975826;28;20041;-80
2021/07/05 05:54:15;;;;;;;1.13;0.70;;;16.20;97.20;;;;;;4974431;28;20054;-80
2021/07/05 05:56:42;;;;;;;4.13;0.70;;;16.20;97.20;;;;;;4974797;28;20066;-80
2021/07/05 05:59:09;;;;;;;1.25;0.80;;;16.20;97.20;;;;;;4974185;28;20088;-80
2021/07/05 06:01:37;;;;;;;1.05;0.65;;;16.20;97.20;;;;;;4974807;28;20109;-80
2021/07/05 06:04:04;;;;;;;0.90;0.57;;;16.20;97.10;;;;;;4992261;28;20442;-79
2021/07/05 06:06:30;;;;;;;1.65;0.70;;;16.30;97.20;;;;;;4974127;28;20493;-79
2021/07/05 06:08:55;;;;;;;1.10;0.68;;;16.30;97.10;;;;;;4974623;28;20030;-79
2021/07/05 06:11:21;;;;;;;2.95;0.70;;;16.30;97.10;;;;;;4974013;28;20089;-79
2021/07/05 06:13:48;;;;;;;1.08;0.70;;;16.30;97.10;;;;;;4974317;28;20054;-79
2021/07/05 06:16:14;;;;;;;2.50;0.70;;;16.30;97.10;;;;;;4973731;28;20133;-80
2021/07/05 06:18:40;;;;;;;2.03;1.15;;;16.30;97.10;;;;;;4974567;28;20030;-80
2021/07/05 06:21:06;;;;;;;2.22;0.75;;;16.30;97.10;;;;;;4974602;28;20034;-80
2021/07/05 06:23:31;;;;;;;3.15;1.20;;;16.30;97.10;;;;;;4991520;28;20109;-80
2021/07/05 06:26:01;;;;;;;1.40;0.90;;;16.20;97.10;;;;;;4974555;28;20410;-80
2021/07/05 06:28:28;;;;;;;1.73;0.95;;;16.30;97.20;;;;;;4973440;28;20025;-80
2021/07/05 06:30:54;;;;;;;2.15;1.10;;;16.30;97.20;;;;;;4974222;28;20085;-80
2021/07/05 06:33:21;;;;;;;2.70;1.20;;;16.30;97.10;;;;;;4991367;28;20041;-80
2021/07/05 06:35:48;;;;;;;1.33;0.90;;;16.30;97.10;;;;;;4976866;28;20029;-80
2021/07/05 06:38:16;;;;;;;1.98;1.17;;;16.30;97.10;;;;;;4976903;28;20062;-81
2021/07/05 06:40:42;;;;;;;2.55;0.90;;;16.30;97.10;;;;;;4977881;28;20030;-80
2021/07/05 06:43:09;;;;;;;2.88;1.20;;;16.40;97.20;;;;;;4977616;28;20030;-80
2021/07/05 06:45:35;;;;;;;2.45;1.25;;;16.40;97.20;;;;;;4977970;28;20018;-80
2021/07/05 06:48:01;;;;;;;2.20;1.20;;;16.40;97.10;;;;;;4977686;28;20033;-80
2021/07/05 06:50:27;;;;;;;3.13;1.48;;;16.40;97.20;;;;;;4976759;28;20053;-80
2021/07/05 06:52:53;;;;;;;4.25;1.35;;;16.40;97.20;;;;;;4977527;28;20105;-80
2021/07/05 06:55:19;;;;;;;3.22;1.20;;;16.50;97.10;;;;;;4976681;28;20065;-80
2021/07/05 06:57:45;;;;;;;3.63;1.27;;;16.50;97.10;;;;;;4977673;28;20108;-80
2021/07/05 07:00:23;;;;;;;2.08;1.20;;;16.60;97.10;;;;;;4994435;28;20033;-81
2021/07/05 07:02:50;;;;;;;2.92;1.20;;;16.60;97.00;;;;;;4977674;28;20031;-80
2021/07/05 07:05:16;;;;;;;2.58;1.20;;;16.60;97.10;;;;;;4976783;28;20459;-80
2021/07/05 07:07:44;;;;;;;4.82;1.20;;;16.70;97.00;;;;;;4977638;28;20022;-80
2021/07/05 07:10:12;;;;;;;2.33;1.20;;;16.70;97.00;;;;;;4977257;28;20085;-79
2021/07/05 07:12:38;;;;;;;2.63;1.23;;;16.80;96.90;;;;;;4978397;28;20034;-79
2021/07/05 07:15:09;;;;;;;3.35;1.08;;;16.80;96.90;;;;;;4977761;28;20057;-80
2021/07/05 07:20:20;;;;;;;2.03;1.13;;;16.90;96.80;;;;;;4994026;28;20537;-80
2021/07/05 07:22:45;;;;;;;2.47;1.08;;;16.90;96.80;;;;;;4977060;28;20130;-80
2021/07/05 07:25:13;;;;;;;2.22;1.05;;;16.90;96.70;;;;;;4976724;28;20041;-80
2021/07/05 07:27:39;;;;;;;4.07;1.50;;;17.10;96.70;;;;;;4976967;28;20030;-80
2021/07/05 07:30:07;;;;;;;2.67;1.05;;;17.10;96.50;;;;;;4976823;28;20034;-79
2021/07/05 07:32:33;;;;;;;2.22;1.30;;;17.20;96.50;;;;;;4993508;28;20054;-78
2021/07/05 07:34:59;;;;;;;1.83;1.10;;;17.30;96.40;;;;;;4976841;28;20136;-78
2021/07/05 07:37:25;;;;;;;2.60;1.20;;;17.30;96.30;;;;;;4976253;28;20026;-79
2021/07/05 07:40:00;;;;;;;3.40;1.20;;;17.40;96.30;;;;;;4976991;28;20022;-79
2021/07/05 07:42:25;;;;;;;4.13;1.30;;;17.40;96.20;;;;;;4993412;28;20385;-80
2021/07/05 07:44:51;;;;;;;2.38;1.30;;;17.40;96.10;;;;;;4976872;28;20121;-79
2021/07/05 07:47:17;;;;;;;2.30;1.20;;;17.50;96.10;;;;;;4975744;28;20042;-80
2021/07/05 07:49:43;;;;;;;3.08;1.38;;;17.60;96.10;;;;;;4976792;28;20076;-80
2021/07/05 07:52:08;;;;;;;2.38;1.33;;;17.60;96.00;;;;;;4994249;28;20425;-79
2021/07/05 07:54:34;;;;;;;1.83;1.08;;;17.70;95.90;;;;;;4993353;28;20118;-79
2021/07/05 07:57:01;;;;;;;3.53;1.60;;;17.80;95.90;;;;;;4976375;28;20451;-79
2021/07/05 07:59:26;;;;;;;2.47;1.35;;;17.90;95.80;;;;;;4975800;28;20127;-80
2021/07/05 08:01:52;;;;;;;3.47;1.35;;;17.90;95.60;;;;;;4976284;28;20027;-79
2021/07/05 08:04:18;;;;;;;3.38;1.60;;;18.00;95.60;;;;;;4975914;28;20034;-80
2021/07/05 08:06:43;;;;;;;2.92;1.60;;;18.10;95.50;;;;;;4976329;28;20030;-79
2021/07/05 08:09:09;;;;;;;4.50;1.40;;;18.10;95.40;;;;;;4993566;28;20030;-79
2021/07/05 08:11:36;;;;;;;4.30;1.85;;;18.10;95.40;;;;;;4975440;28;20034;-79
2021/07/05 08:14:06;;;;;;;4.78;1.80;;;18.20;95.40;;;;;;4993562;28;20026;-79
2021/07/05 08:16:32;;;;;;;3.35;1.58;;;18.10;95.40;;;;;;4975290;28;20046;-79
2021/07/05 08:18:58;;;;;;;2.35;1.48;;;18.20;95.40;;;;;;4975939;28;20041;-79
2021/07/05 08:21:25;;;;;;;5.95;1.95;;;18.20;95.40;;;;;;4975227;28;20022;-79
2021/07/05 08:23:51;;;;;;;2.70;1.45;;;18.10;95.40;;;;;;4975931;28;20028;-79
2021/07/05 08:26:18;;;;;;;1.77;1.17;;;18.20;95.50;;;;;;4975277;28;20026;-81
2021/07/05 08:28:44;;;;;;;3.10;1.55;;;18.20;95.50;;;;;;4975657;28;20058;-80
2021/07/05 08:31:10;;;;;;;2.70;1.40;;;18.20;95.40;;;;;;4975565;28;20042;-79
2021/07/05 08:33:36;;;;;;;3.22;1.58;;;18.20;95.40;;;;;;4975097;28;20275;-79
2021/07/05 08:36:03;;;;;;;4.05;1.67;;;18.20;95.40;;;;;;4975717;28;20018;-79
2021/07/05 08:38:30;;;;;;;3.03;1.38;;;18.20;95.40;;;;;;4992173;28;20375;-79
2021/07/05 08:40:57;;;;;;;2.67;1.40;;;18.30;95.50;;;;;;4975655;28;20084;-79
2021/07/05 08:43:27;;;;;;;4.13;1.73;;;18.20;95.40;;;;;;4974857;28;20466;-80
2021/07/05 08:46:02;;;;;;;5.90;1.45;;;18.30;95.30;;;;;;4975465;28;20019;-79
2021/07/05 08:48:38;;;;;;;3.42;1.95;;;18.20;95.20;;;;;;4992256;28;20026;-80
2021/07/05 08:51:13;;;;;;;4.53;1.88;;;18.20;95.30;;;;;;4992719;28;20034;-79
2021/07/05 08:53:40;;;;;;;5.05;2.38;;;18.30;95.40;;;;;;4974847;28;20474;-79
2021/07/05 08:56:06;;;;;;;3.55;1.85;;;18.20;95.30;;;;;;4975389;28;20016;-79
2021/07/05 08:58:32;;;;;;;6.32;1.98;;;18.30;95.30;;;;;;4974195;28;20331;-79
2021/07/05 09:00:58;;;;;;;3.50;1.75;;;18.30;95.30;;;;;;4975336;28;20045;-79
2021/07/05 09:03:26;;;;;;;4.82;1.88;;;18.40;95.20;;;;;;4992115;28;20080;-79
2021/07/05 09:06:11;;;;;;;4.15;2.25;;;18.50;95.10;;;;;;4975219;28;20470;-79
2021/07/05 09:08:39;;;;;;;4.82;2.30;;;18.60;95.00;;;;;;4991992;28;20026;-79
2021/07/05 09:11:08;;;;;;;4.05;2.10;;;18.60;95.00;;;;;;4975248;28;20058;-79
2021/07/05 09:13:43;;;;;;;5.43;2.63;;;18.60;94.90;;;;;;4974622;28;20531;-79
2021/07/05 09:16:09;;;;;;;6.90;2.88;;;18.70;94.80;;;;;;4975237;28;20054;-79
2021/07/05 09:18:38;;;;;;;9.43;3.55;;;18.70;94.70;;;;;;4974526;28;20471;-80
2021/07/05 09:21:19;;;;;;;7.50;3.85;;;18.80;94.90;;;;;;4975215;28;20033;-79
2021/07/05 09:23:47;;;;;;;8.57;4.00;;;18.90;94.60;;;;;;4992592;28;20027;-80
2021/07/05 09:26:26;;;;;;;9.52;3.97;;;19.00;94.50;;;;;;4974769;28;20050;-80
2021/07/05 09:28:53;;;;;;;7.07;3.38;;;19.20;94.40;;;;;;4992601;28;20466;-80
2021/07/05 09:31:40;;;;;;;9.85;3.05;;;19.30;94.10;;;;;;4974995;28;20038;-79
2021/07/05 09:34:31;;;;;;;6.97;3.90;;;19.30;93.90;;;;;;4992642;28;20073;-79
2021/07/05 09:37:09;;;;;;;7.05;4.40;;;19.30;93.70;;;;;;4974776;28;20033;-80
2021/07/05 09:39:34;;;;;;;9.82;4.25;;;19.40;93.70;;;;;;4974439;28;20062;-79
2021/07/05 09:42:06;;;;;;;8.00;4.13;;;19.40;93.60;;;;;;4975064;28;20022;-79
2021/07/05 09:44:44;;;;;;;8.30;4.20;;;19.40;93.60;;;;;;4992300;28;20022;-79
2021/07/05 09:47:18;;;;;;;7.68;4.72;;;19.40;93.60;;;;;;4975013;28;20053;-79
2021/07/05 09:49:45;;;;;;;7.97;4.45;;;19.40;93.60;;;;;;4991691;28;20069;-79
2021/07/05 09:52:26;;;;;;;7.43;4.20;;;19.40;93.50;;;;;;4974926;28;20080;-79
2021/07/05 09:54:59;;;;;;;7.07;3.30;;;19.40;93.80;;;;;;4992174;28;20065;-79
2021/07/05 09:57:52;;;;;;;7.80;3.92;;;19.40;93.40;;;;;;4991907;28;20026;-80
2021/07/05 10:00:27;;;;;;;8.55;4.32;;;19.50;93.40;;;;;;4966626;28;20121;-79
2021/07/05 10:03:05;;;;;;;6.88;3.70;;;19.50;93.40;;;;;;4974904;28;20049;-78
2021/07/05 10:05:43;;;;;;;6.90;3.58;;;19.60;93.30;;;;;;4974102;28;20023;-78
2021/07/05 10:08:11;;;;;;;9.70;3.70;;;19.60;93.20;;;;;;4976337;28;20109;-78
2021/07/05 10:10:40;;;;;;;10.40;3.55;;;19.70;93.20;;;;;;4995238;28;20030;-79
2021/07/05 10:13:09;;;;;;;9.55;4.57;;;19.70;93.10;;;;;;4995560;28;20030;-79
2021/07/05 10:15:36;;;;;;;7.40;3.53;;;19.70;93.40;;;;;;4977230;28;20404;-79
2021/07/05 10:18:03;;;;;;;7.88;3.75;;;19.70;93.10;;;;;;4978416;28;20026;-78
2021/07/05 10:20:32;;;;;;;9.07;4.10;;;19.80;93.00;;;;;;4977559;28;20064;-78
2021/07/05 10:23:06;;;;;;;7.40;3.95;;;19.80;93.00;;;;;;4978261;28;20026;-78
2021/07/05 10:25:34;;;;;;;5.55;2.92;;;19.80;92.90;;;;;;4977376;28;20117;-78
2021/07/05 10:28:01;;;;;;;12.05;3.50;;;19.80;92.90;;;;;;4978126;28;20176;-78
2021/07/05 10:30:27;;;;;;;4.03;2.35;;;19.90;92.80;;;;;;4977337;28;20121;-79
2021/07/05 10:32:55;;;;;;;5.20;3.03;;;20.00;92.70;;;;;;4977987;28;20165;-78
2021/07/05 10:35:25;;;;;;;7.20;3.45;;;20.00;92.30;;;;;;4977884;28;20022;-78
2021/07/05 10:37:57;;;;;;;11.50;3.65;;;20.00;92.40;;;;;;4995329;28;20029;-78
2021/07/05 10:40:40;;;;;;;8.13;3.85;;;20.00;92.30;;;;;;4977858;28;20181;-79
2021/07/05 10:43:14;;;;;;;5.38;2.85;;;20.00;92.30;;;;;;4977850;28;20455;-79
2021/07/05 10:45:52;;;;;;;6.13;2.88;;;20.00;92.40;;;;;;4994519;28;20030;-79
2021/07/05 10:48:42;;;;;;;5.38;2.83;;;19.90;92.40;;;;;;4977735;28;20019;-79
2021/07/05 10:51:15;;;;;;;5.85;2.90;;;19.80;92.40;;;;;;4977692;28;20125;-79
2021/07/05 10:53:44;;;;;;;8.05;3.40;;;19.90;92.40;;;;;;4977054;28;20339;-79
2021/07/05 10:56:34;;;;;;;6.10;2.55;;;19.90;92.30;;;;;;4977646;28;20382;-78
2021/07/05 10:59:11;;;;;;;8.98;3.70;;;20.00;92.50;;;;;;4977519;28;20037;-79
2021/07/05 11:01:43;;;;;;;6.70;3.70;;;19.90;92.30;;;;;;4976841;28;20026;-78
2021/07/05 11:04:32;;;;;;;6.70;3.10;;;19.90;92.30;;;;;;4977549;28;20050;-78
2021/07/05 11:07:11;;;;;;;6.13;3.33;;;20.00;92.20;;;;;;4977546;28;20025;-78
2021/07/05 11:09:54;;;;;;;6.90;3.47;;;20.00;92.10;;;;;;4976566;28;20553;-78
2021/07/05 11:12:28;;;;;;;5.90;3.17;;;20.00;92.10;;;;;;4977239;28;20026;-78
2021/07/05 11:14:54;;;;;;;5.97;3.40;;;20.10;92.10;;;;;;4977306;28;20100;-79
2021/07/05 11:17:23;;;;;;;6.70;3.50;;;20.10;92.10;;;;;;4976663;28;20490;-78
2021/07/05 11:19:57;;;;;;;7.13;3.28;;;20.20;92.00;;;;;;4976016;28;20394;-78
2021/07/05 11:22:37;;;;;;;7.80;4.35;;;20.20;92.00;;;;;;4977010;28;20026;-78
2021/07/05 11:25:04;;;;;;;5.50;3.05;;;20.30;92.00;;;;;;4976936;28;20493;-79
2021/07/05 11:27:50;;;;;;;6.72;3.33;;;20.20;92.00;;;;;;4976337;28;20427;-79
2021/07/05 11:30:42;;;;;;;9.32;3.30;;;20.20;91.90;;;;;;4976869;28;20030;-78
2021/07/05 11:33:10;;;;;;;9.27;3.80;;;20.20;91.90;;;;;;4976805;28;20029;-78
2021/07/05 11:35:58;;;;;;;7.07;3.55;;;20.30;91.80;;;;;;4975965;28;20037;-79
2021/07/05 11:38:33;;;;;;;10.50;3.42;;;20.30;91.70;;;;;;4976719;28;20018;-78
2021/07/05 11:41:11;;;;;;;5.70;3.08;;;20.40;91.70;;;;;;4976697;28;20493;-78
2021/07/05 11:43:55;;;;;;;6.80;3.42;;;20.50;91.60;;;;;;4975998;28;20026;-78
2021/07/05 11:46:26;;;;;;;8.18;4.05;;;20.50;91.30;;;;;;4976617;28;20022;-78
2021/07/05 11:48:55;;;;;;;5.82;3.45;;;20.40;90.90;;;;;;4975890;28;20031;-78
2021/07/05 11:51:50;;;;;;;7.10;3.90;;;20.30;91.00;;;;;;4976444;28;20124;-78
2021/07/05 11:54:19;;;;;;;6.82;3.05;;;20.10;91.20;;;;;;4990737;28;20090;-78
2021/07/05 11:56:53;;;;;;;7.65;4.65;;;19.90;91.50;;;;;;4975745;28;20038;-79
2021/07/05 11:59:31;;;;;;;6.88;4.28;;;19.60;92.00;;;;;;4976426;28;20398;-79
2021/07/05 12:02:06;;;;;;;9.88;4.18;;;19.20;92.50;;;;;;4976417;28;20019;-81
2021/07/05 12:04:37;;;;;;;4.85;2.65;;;18.80;93.20;;;;;;4976013;28;20022;-83
2021/07/05 12:07:05;;;;;;;4.35;2.55;;;18.50;93.70;;;;;;4993629;28;20030;-80
2021/07/05 12:09:32;;;;;;;6.90;2.97;;;18.30;94.10;;;;;;4992992;28;20390;-85
2021/07/05 12:12:07;;;;;;;4.22;2.50;;;18.20;94.20;;;;;;4976621;28;20045;-80
2021/07/05 12:14:33;;;;;;;6.45;2.42;;;18.30;94.20;;;;;;4975833;28;20030;-81
2021/07/05 12:17:01;;;;;;;5.25;3.00;;;18.40;94.10;;;;;;4964484;28;20051;-80
2021/07/05 12:19:29;;;;;;;4.35;2.13;;;18.60;94.20;;;;;;4954060;29;20063;-80
2021/07/05 12:22:04;;;;;;;2.97;1.90;;;18.90;93.80;;;;;;4952932;29;20114;-79
2021/07/05 12:24:33;;;;;;;4.13;2.10;;;19.10;93.70;;;;;;4953569;29;20433;-79
2021/07/05 12:27:00;;;;;;;3.78;2.10;;;19.30;93.50;;;;;;4954903;28;20113;-80
2021/07/05 12:29:33;;;;;;;2.90;2.10;;;19.30;93.50;;;;;;4953370;29;20031;-80
2021/07/05 12:32:16;;;;;;;3.70;2.10;;;19.50;93.40;;;;;;4952339;28;20035;-80
2021/07/05 12:34:59;;;;;;;2.92;1.85;;;19.70;93.40;;;;;;4952783;29;20034;-80
2021/07/05 12:37:32;;;;;;;3.33;1.95;;;19.90;93.30;;;;;;4953348;29;20034;-79
2021/07/05 12:40:04;;;;;;;3.28;1.83;;;20.10;93.10;;;;;;4952635;29;20027;-79
2021/07/05 12:42:37;;;;;;;4.28;2.60;;;20.40;92.90;;;;;;4953212;29;20062;-79
2021/07/05 12:45:35;;;;;;;3.58;2.17;;;20.70;92.70;;;;;;4953074;29;20391;-80
2021/07/05 12:48:20;;;;;;;4.78;2.63;;;20.90;92.50;;;;;;4952878;29;20414;-80
2021/07/05 12:50:53;;;;;;;5.15;2.20;;;21.00;92.30;;;;;;4952486;29;20125;-80
2021/07/05 12:53:29;;;;;;;4.63;1.98;;;21.00;92.40;;;;;;4954486;29;20027;-80
2021/07/05 12:56:08;;;;;;;4.45;2.30;;;21.10;92.30;;;;;;4952177;29;20279;-80
2021/07/05 12:58:40;;;;;;;3.58;1.95;;;21.00;92.30;;;;;;4953006;29;20122;-80